Time;durP1;ratioP1;P1;durP2;ratioP2;P2;SDS_P1;SDS_P2;PMS_P1;PMS_P2;Temp;Humidity;BMP_temperature;BMP_pressure;BME280_temperature;BME280_humidity;BME280_pressure;Samples;Min_cycle;Max_cycle;Signal;HPM_P1;HPM_P2
2023/01/16 00:00:35;;;;;;;5.65;0.82;;;;;;;7.28;90.07;98835.69;8333071;28;20537;-58
2023/01/16 00:04:35;;;;;;;3.08;0.55;;;;;;;7.47;88.31;98831.88;8332294;28;20045;-58
2023/01/16 00:08:36;;;;;;;2.38;0.52;;;;;;;7.63;86.95;98824.72;8332257;28;20137;-57
2023/01/16 00:12:36;;;;;;;2.80;0.60;;;;;;;7.64;86.67;98821.03;8329730;28;20041;-57
2023/01/16 00:16:37;;;;;;;3.80;0.60;;;;;;;7.52;88.06;98808.06;8336061;28;20434;-56
2023/01/16 00:20:37;;;;;;;5.40;0.82;;;;;;;7.45;87.71;98791.75;8342642;28;20041;-55
2023/01/16 00:24:38;;;;;;;4.60;0.80;;;;;;;7.59;87.46;98792.94;8342202;28;20489;-54
2023/01/16 00:28:39;;;;;;;3.08;0.65;;;;;;;7.59;86.84;98777.66;8341937;28;20098;-57
2023/01/16 00:32:39;;;;;;;7.05;0.70;;;;;;;7.59;87.76;98777.66;8336034;28;20060;-54
2023/01/16 00:36:40;;;;;;;5.22;0.77;;;;;;;7.53;87.97;98772.94;8335282;28;20502;-54
2023/01/16 00:40:40;;;;;;;5.43;0.60;;;;;;;7.49;88.29;98750.09;8361786;28;20044;-54
2023/01/16 00:44:40;;;;;;;5.22;1.17;;;;;;;7.54;87.91;98750.41;8361965;28;20033;-55
2023/01/16 00:48:41;;;;;;;2.83;0.60;;;;;;;7.39;88.05;98738.63;8362887;28;20051;-53
2023/01/16 00:52:41;;;;;;;2.53;0.68;;;;;;;7.30;88.11;98738.78;8362032;28;20136;-54
2023/01/16 00:56:42;;;;;;;7.53;0.93;;;;;;;7.18;87.65;98732.88;8341040;28;20402;-55
2023/01/16 01:00:42;;;;;;;6.07;0.70;;;;;;;7.11;88.01;98729.13;8342380;28;20073;-54
2023/01/16 01:04:43;;;;;;;3.00;0.45;;;;;;;7.07;87.19;98717.03;8358091;28;20456;-54
2023/01/16 01:08:43;;;;;;;10.25;1.17;;;;;;;7.02;87.31;98707.78;8345838;28;20041;-58
2023/01/16 01:12:44;;;;;;;3.20;0.95;;;;;;;7.07;86.39;98695.53;8345682;28;20040;-59
2023/01/16 01:16:44;;;;;;;1.98;0.43;;;;;;;7.08;86.12;98697.22;8345691;28;20094;-52
2023/01/16 01:20:46;;;;;;;1.63;0.60;;;;;;;6.98;87.55;98690.31;8345373;28;20041;-56
2023/01/16 01:24:49;;;;;;;4.32;0.60;;;;;;;6.97;89.70;98684.09;8345385;28;20091;-59
2023/01/16 01:28:49;;;;;;;4.13;1.20;;;;;;;6.94;90.75;98678.19;8341898;28;20045;-57
2023/01/16 01:32:50;;;;;;;1.63;0.50;;;;;;;7.00;90.03;98670.34;8348195;28;20063;-58
2023/01/16 01:36:50;;;;;;;1.83;0.50;;;;;;;7.18;88.77;98660.31;8370057;28;20036;-58
2023/01/16 01:40:51;;;;;;;1.52;0.30;;;;;;;7.23;88.83;98652.59;8367422;28;20041;-58
2023/01/16 01:44:54;;;;;;;1.92;0.47;;;;;;;7.22;88.58;98642.84;8360925;28;20033;-58
2023/01/16 01:49:06;;;;;;;1.03;0.47;;;;;;;7.16;89.06;98624.69;8361060;28;20036;-58
2023/01/16 01:53:12;;;;;;;1.52;0.38;;;;;;;7.01;89.72;98617.44;8360980;28;20044;-58
2023/01/16 01:57:19;;;;;;;1.30;0.30;;;;;;;6.85;91.25;98607.50;8360797;28;20033;-58
2023/01/16 02:01:20;;;;;;;2.33;0.40;;;;;;;6.73;91.54;98600.75;8360800;28;20128;-58
2023/01/16 02:05:28;;;;;;;0.65;0.20;;;;;;;6.63;92.12;98593.84;8356170;28;20513;-58
2023/01/16 02:09:32;;;;;;;0.80;0.20;;;;;;;6.51;92.49;98585.25;8357162;28;20048;-58
2023/01/16 02:13:33;;;;;;;0.82;0.30;;;;;;;6.42;92.78;98569.28;8356712;28;20048;-56
2023/01/16 02:22:18;;;;;;;0.45;0.40;;;;;;;6.24;93.95;98549.75;8358063;28;20037;-57
2023/01/16 02:26:51;;;;;;;0.20;0.20;;;;;;;6.21;94.26;98539.34;8360002;28;20116;-57
2023/01/16 02:31:09;;;;;;;1.98;0.50;;;;;;;6.04;95.61;98533.09;8355053;28;20139;-57
2023/01/16 02:35:24;;;;;;;1.40;0.35;;;;;;;5.91;96.61;98525.47;8357827;28;20047;-58
2023/01/16 02:39:36;;;;;;;0.75;0.28;;;;;;;5.72;97.70;98520.31;8359577;28;20091;-57
2023/01/16 02:43:59;;;;;;;2.78;0.43;;;;;;;5.60;98.40;98512.69;8357525;28;20037;-57
2023/01/16 02:48:12;;;;;;;1.67;0.40;;;;;;;5.64;98.52;98489.94;8357801;28;20036;-57
2023/01/16 02:52:39;;;;;;;2.65;0.22;;;;;;;5.60;98.17;98475.19;8359077;28;20041;-57
2023/01/16 02:56:45;;;;;;;0.40;0.30;;;;;;;5.63;98.17;98469.50;8358644;28;20033;-57
2023/01/16 03:00:56;;;;;;;0.38;0.25;;;;;;;5.78;96.46;98441.09;8359164;28;20057;-56
2023/01/16 03:04:57;;;;;;;0.50;0.30;;;;;;;5.88;95.14;98431.09;8358305;28;20041;-58
2023/01/16 03:09:37;;;;;;;2.33;0.40;;;;;;;6.07;93.80;98414.72;8357697;28;20536;-58
2023/01/16 03:14:10;;;;;;;0.73;0.35;;;;;;;6.11;93.25;98391.97;8358634;28;20057;-58
2023/01/16 03:18:35;;;;;;;2.90;0.60;;;;;;;6.07;92.89;98388.75;8358039;28;20049;-59
2023/01/16 03:27:26;;;;;;;2.20;0.40;;;;;;;5.96;93.09;98381.06;8318783;27;20481;-53
2023/01/16 03:31:37;;;;;;;1.23;0.30;;;;;;;5.70;94.63;98364.19;8321498;28;20041;-53
2023/01/16 03:35:46;;;;;;;2.10;0.60;;;;;;;5.61;96.40;98366.97;8321265;28;20041;-54
2023/01/16 03:39:53;;;;;;;0.88;0.30;;;;;;;5.54;97.96;98358.75;8321694;28;20045;-54
2023/01/16 03:44:02;;;;;;;1.13;0.30;;;;;;;5.42;99.60;98335.94;8320735;28;20038;-53
2023/01/16 03:48:12;;;;;;;7.07;0.63;;;;;;;5.42;100.00;98322.56;8321128;28;20402;-54
2023/01/16 03:52:15;;;;;;;1.30;0.50;;;;;;;5.59;100.00;98302.84;8320721;28;20564;-52
2023/01/16 03:56:23;;;;;;;2.67;0.47;;;;;;;5.68;100.00;98284.94;8320609;28;20566;-54
2023/01/16 04:00:28;;;;;;;5.32;0.70;;;;;;;5.76;99.69;98269.72;8319932;28;20155;-57
2023/01/16 04:04:38;;;;;;;5.68;0.60;;;;;;;5.73;99.09;98261.16;8335313;28;20518;-57
2023/01/16 04:08:42;;;;;;;4.05;0.60;;;;;;;5.72;98.93;98248.75;8320253;28;20100;-57
2023/01/16 04:12:48;;;;;;;9.52;0.82;;;;;;;5.79;98.75;98231.00;8319967;28;20037;-56
2023/01/16 04:16:50;;;;;;;3.47;0.80;;;;;;;5.80;98.69;98219.28;8320548;28;20521;-57
2023/01/16 04:20:51;;;;;;;3.72;0.65;;;;;;;5.76;99.23;98209.88;8320020;28;20691;-57
2023/01/16 04:24:53;;;;;;;2.08;0.40;;;;;;;5.85;98.69;98190.16;8319931;28;20421;-56
2023/01/16 04:28:55;;;;;;;3.83;0.70;;;;;;;5.90;97.77;98172.59;8320147;28;20051;-58
2023/01/16 04:32:55;;;;;;;3.65;0.70;;;;;;;5.94;97.74;98156.97;8319318;28;20175;-58
2023/01/16 04:36:55;;;;;;;3.17;0.70;;;;;;;5.97;98.05;98141.41;8306552;28;20088;-58
2023/01/16 04:40:56;;;;;;;4.43;1.25;;;;;;;6.00;97.79;98124.13;8297621;28;20053;-58
2023/01/16 04:44:56;;;;;;;7.03;1.38;;;;;;;6.03;97.46;98123.78;8296862;28;20046;-53
2023/01/16 04:48:57;;;;;;;8.73;0.77;;;;;;;6.07;97.31;98109.88;8297615;28;20431;-54
2023/01/16 04:52:57;;;;;;;8.73;0.88;;;;;;;6.08;97.66;98099.97;8297398;28;20164;-54
2023/01/16 04:56:58;;;;;;;5.72;0.65;;;;;;;6.11;97.42;98077.34;8297047;28;20084;-59
2023/01/16 05:00:58;;;;;;;4.15;0.93;;;;;;;6.08;97.63;98065.94;8297144;28;20129;-56
2023/01/16 05:04:59;;;;;;;2.17;0.60;;;;;;;6.07;98.17;98049.19;8296547;28;20038;-55
2023/01/16 05:09:00;;;;;;;3.65;0.50;;;;;;;6.10;98.11;98030.91;8296884;28;20450;-55
2023/01/16 05:13:01;;;;;;;3.58;0.63;;;;;;;6.17;97.15;98029.22;8296826;28;20505;-54
2023/01/16 05:17:01;;;;;;;3.20;1.05;;;;;;;6.32;95.65;98014.06;8279286;28;20399;-54
2023/01/16 05:21:02;;;;;;;2.17;0.60;;;;;;;6.38;95.33;97999.97;8296445;28;20058;-53
2023/01/16 05:25:03;;;;;;;0.70;0.40;;;;;;;6.38;95.45;97993.75;8294087;28;20050;-55
2023/01/16 05:29:03;;;;;;;2.75;0.40;;;;;;;6.40;95.12;97976.44;8278678;28;20042;-53
2023/01/16 05:33:06;;;;;;;3.67;0.70;;;;;;;6.47;94.86;97957.81;8262894;28;20056;-55
2023/01/16 05:37:06;;;;;;;3.33;0.55;;;;;;;6.54;94.72;97954.22;8291627;28;20096;-55
2023/01/16 05:41:07;;;;;;;5.30;0.57;;;;;;;6.63;93.99;97939.75;8295983;28;20037;-55
2023/01/16 05:45:09;;;;;;;4.40;0.50;;;;;;;6.76;93.04;97931.91;8294957;28;20208;-53
2023/01/16 05:49:09;;;;;;;2.05;0.68;;;;;;;6.83;92.34;97924.81;8292876;28;20073;-54
2023/01/16 05:53:09;;;;;;;2.60;0.40;;;;;;;6.89;92.47;97923.28;8282932;28;20048;-54
2023/01/16 05:57:10;;;;;;;1.30;0.50;;;;;;;6.86;92.98;97913.72;8294839;28;20049;-53
2023/01/16 06:01:11;;;;;;;2.72;0.50;;;;;;;6.81;93.71;97904.53;8295347;28;20042;-54
2023/01/16 06:05:12;;;;;;;1.75;0.45;;;;;;;6.85;93.61;97887.03;8294333;28;20120;-54
2023/01/16 06:09:13;;;;;;;3.00;0.40;;;;;;;6.87;93.58;97868.91;8294308;28;20041;-53
2023/01/16 06:13:13;;;;;;;1.70;0.40;;;;;;;6.99;92.42;97852.19;8293315;28;20046;-53
2023/01/16 06:17:14;;;;;;;2.10;0.50;;;;;;;7.02;92.12;97827.63;8294804;28;20042;-55
2023/01/16 06:21:14;;;;;;;1.40;0.60;;;;;;;7.01;91.90;97820.59;8293929;28;20073;-53
2023/01/16 06:25:15;;;;;;;3.67;0.50;;;;;;;7.06;91.63;97817.34;8293175;28;20522;-55
2023/01/16 06:29:15;;;;;;;1.35;0.40;;;;;;;7.01;91.69;97793.72;8294628;28;20503;-54
2023/01/16 06:33:16;;;;;;;3.65;0.50;;;;;;;7.06;91.19;97775.22;8289793;28;20034;-54
2023/01/16 06:37:16;;;;;;;5.88;0.82;;;;;;;7.14;90.48;97780.47;8267402;28;20038;-53
2023/01/16 06:41:17;;;;;;;6.90;2.10;;;;;;;7.27;89.38;97778.00;8275342;28;20099;-53
2023/01/16 06:45:21;;;;;;;58.53;3.78;;;;;;;7.27;89.33;97761.88;8258270;28;20042;-55
2023/01/16 06:49:22;;;;;;;3.08;1.25;;;;;;;7.27;89.18;97742.22;8263678;28;20033;-55
2023/01/16 06:53:22;;;;;;;2.72;0.80;;;;;;;7.26;88.56;97744.06;8288087;28;20076;-52
2023/01/16 06:57:22;;;;;;;2.45;0.90;;;;;;;7.39;87.73;97720.06;8288723;28;20029;-52
2023/01/16 07:01:23;;;;;;;3.15;0.90;;;;;;;7.38;87.26;97694.19;8290445;28;20507;-53
2023/01/16 07:05:25;;;;;;;7.40;1.02;;;;;;;7.43;86.90;97686.41;8271769;28;20061;-56
2023/01/16 07:09:29;;;;;;;3.10;1.00;;;;;;;7.43;86.30;97686.41;8292338;28;20052;-54
2023/01/16 07:13:30;;;;;;;22.05;2.10;;;;;;;7.50;85.73;97655.06;8291184;28;20041;-55
2023/01/16 07:22:50;;;;;;;4.95;1.17;;;;;;;7.24;88.23;97627.91;8291660;28;20113;-55
2023/01/16 07:26:14;;;;;;;33.85;2.30;;;;;;;7.24;89.23;97633.28;8292292;28;20034;-54
2023/01/16 07:30:16;;;;;;;5.95;1.20;;;;;;;7.03;91.20;97621.66;8291540;28;20041;-53
2023/01/16 07:34:17;;;;;;;6.72;1.75;;;;;;;6.90;93.06;97614.31;8290889;28;20041;-55
2023/01/16 07:38:17;;;;;;;47.08;3.78;;;;;;;6.90;93.37;97586.63;8292648;28;20553;-53
2023/01/16 07:42:17;;;;;;;3.22;1.33;;;;;;;6.87;94.03;97593.22;8291903;28;20043;-54
2023/01/16 07:46:18;;;;;;;3.05;1.05;;;;;;;6.79;94.79;97579.03;8291961;28;20177;-58
2023/01/16 07:50:18;;;;;;;22.58;2.33;;;;;;;6.80;95.62;97565.44;8291124;28;20034;-59
2023/01/16 07:54:21;;;;;;;3.75;1.05;;;;;;;6.75;95.50;97570.56;8285556;28;20046;-58
2023/01/16 07:58:22;;;;;;;2.97;1.02;;;;;;;6.72;95.53;97551.31;8282259;28;20552;-58
2023/01/16 08:02:22;;;;;;;83.55;6.78;;;;;;;6.67;96.46;97535.75;8273521;28;20076;-58
2023/01/16 08:06:23;;;;;;;6.40;1.60;;;;;;;6.62;97.74;97537.34;8285817;28;20049;-57
2023/01/16 08:10:24;;;;;;;6.22;1.17;;;;;;;6.62;97.82;97507.84;8290907;28;20129;-57
2023/01/16 08:14:24;;;;;;;4.80;1.08;;;;;;;6.63;97.28;97498.75;8297456;28;20380;-58
2023/01/16 08:18:25;;;;;;;3.90;0.75;;;;;;;6.65;97.57;97496.72;8277751;28;20116;-58
2023/01/16 08:22:25;;;;;;;18.35;1.70;;;;;;;6.70;97.14;97481.72;8274390;28;20455;-57
2023/01/16 08:26:26;;;;;;;14.68;1.27;;;;;;;6.61;97.60;97485.53;8297354;28;20057;-57
2023/01/16 08:30:26;;;;;;;3.05;1.35;;;;;;;6.56;98.05;97481.75;8284687;28;20046;-58
2023/01/16 08:34:27;;;;;;;4.10;0.90;;;;;;;6.50;99.15;97475.31;8295739;28;20038;-57
2023/01/16 08:38:27;;;;;;;17.75;1.38;;;;;;;6.53;99.05;97471.41;8279586;28;20503;-57
2023/01/16 08:51:23;;;;;;;3.65;0.68;;;;;;;6.44;99.52;97449.25;8296851;28;20038;-54
2023/01/16 08:55:23;;;;;;;75.65;4.43;;;;;;;6.48;99.75;97453.19;8296655;28;20046;-54
2023/01/16 08:59:24;;;;;;;99.50;5.80;;;;;;;6.51;99.57;97417.94;8297076;28;20042;-53
2023/01/16 09:03:24;;;;;;;1.70;0.60;;;;;;;6.46;99.91;97412.31;8294075;28;20053;-54
2023/01/16 09:07:24;;;;;;;18.42;1.55;;;;;;;6.40;100.00;97396.97;8291886;28;20107;-57
2023/01/16 09:15:45;;;;;;;4.95;0.80;;;;;;;6.32;100.00;97399.78;8293875;28;20034;-59
2023/01/16 09:19:46;;;;;;;1.80;0.70;;;;;;;6.26;100.00;97387.13;8293498;28;20133;-59
2023/01/16 09:23:46;;;;;;;2.30;0.68;;;;;;;6.31;100.00;97357.88;8270696;28;20492;-57
2023/01/16 09:27:47;;;;;;;145.90;6.63;;;;;;;6.34;99.94;97360.19;8272971;28;20124;-58
2023/01/16 09:31:48;;;;;;;3.00;0.63;;;;;;;6.44;98.43;97354.50;8295273;28;20064;-58
2023/01/16 09:35:48;;;;;;;6.28;1.02;;;;;;;6.51;98.13;97366.97;8293635;28;20762;-58
2023/01/16 09:39:49;;;;;;;2.33;0.30;;;;;;;6.51;97.55;97361.59;8293894;28;20072;-52
2023/01/16 09:43:50;;;;;;;18.42;1.45;;;;;;;6.56;97.25;97356.47;8286393;28;20108;-53
2023/01/16 09:47:56;;;;;;;34.40;3.35;;;;;;;6.67;96.51;97366.69;8294630;28;20560;-53
2023/01/16 10:00:50;;;;;;;1.38;0.50;;;;;;;6.75;95.48;97337.03;8292066;28;20041;-54
2023/01/16 10:04:53;;;;;;;4.35;0.88;;;;;;;6.86;95.09;97327.63;8291342;28;20072;-51
2023/01/16 10:09:23;;;;;;;2.35;0.52;;;;;;;6.95;94.25;97321.91;8292067;28;20418;-52
2023/01/16 10:13:43;;;;;;;1.98;0.60;;;;;;;7.12;92.53;97309.84;8291911;28;20042;-53
2023/01/16 10:18:05;;;;;;;1.30;0.20;;;;;;;7.23;90.91;97303.06;8292328;28;20037;-53
2023/01/16 10:22:36;;;;;;;0.75;0.40;;;;;;;7.32;88.73;97302.69;8289176;28;20389;-54
2023/01/16 10:26:58;;;;;;;0.93;0.30;;;;;;;7.38;88.18;97295.72;8285301;28;20069;-53
2023/01/16 10:31:21;;;;;;;0.85;0.20;;;;;;;7.43;88.09;97280.66;8291690;28;20470;-53
2023/01/16 10:35:26;;;;;;;2.67;0.40;;;;;;;7.55;88.12;97281.75;8290356;28;20061;-52
2023/01/16 10:39:33;;;;;;;0.45;0.17;;;;;;;7.71;86.70;97259.88;8291412;28;20289;-52
2023/01/16 10:49:31;;;;;;;0.77;0.30;;;;;;;9.85;79.17;97230.19;8291027;28;20490;-53
2023/01/16 10:52:21;;;;;;;0.40;0.30;;;;;;;9.25;79.38;97217.22;8290629;28;20415;-50
2023/01/16 10:56:21;;;;;;;1.23;0.20;;;;;;;9.30;80.06;97203.94;8288966;28;20407;-53
2023/01/16 11:00:29;;;;;;;0.55;0.30;;;;;;;9.50;80.60;97207.38;8290661;28;20049;-58
2023/01/16 11:04:34;;;;;;;0.52;0.20;;;;;;;9.61;79.62;97195.91;8290191;28;20092;-55
2023/01/16 11:08:35;;;;;;;0.75;0.20;;;;;;;8.87;81.22;97194.72;8291003;28;20034;-56
2023/01/16 11:21:26;;;;;;;1.27;0.30;;;;;;;8.80;83.66;97164.31;8289827;28;20049;-53
2023/01/16 11:25:28;;;;;;;0.43;0.38;;;;;;;8.74;84.08;97143.59;8290161;28;20407;-55
2023/01/16 11:29:37;;;;;;;5.38;0.55;;;;;;;8.51;84.94;97144.06;8291168;28;20503;-57
2023/01/16 11:33:49;;;;;;;0.77;0.50;;;;;;;8.37;86.30;97125.47;8289487;28;20034;-57
2023/01/16 11:37:50;;;;;;;1.23;0.30;;;;;;;8.23;86.90;97126.53;8287807;28;20470;-54
2023/01/16 11:41:53;;;;;;;1.23;0.50;;;;;;;8.08;87.66;97108.72;8288499;28;20042;-56
2023/01/16 11:46:03;;;;;;;2.47;0.40;;;;;;;8.13;88.30;97107.25;8290430;28;20034;-58
2023/01/16 11:50:21;;;;;;;2.83;0.75;;;;;;;8.14;88.03;97092.78;8297056;28;20092;-57
2023/01/16 11:54:26;;;;;;;1.40;0.30;;;;;;;8.21;87.52;97098.97;8296207;28;20117;-54
2023/01/16 11:58:50;;;;;;;0.60;0.28;;;;;;;8.15;87.39;97083.66;8296033;28;20053;-55
2023/01/16 12:07:20;;;;;;;1.52;0.30;;;;;;;8.28;85.99;97046.00;8322633;28;20443;-52
2023/01/16 12:11:39;;;;;;;1.63;0.60;;;;;;;8.38;86.19;97039.16;8291860;28;20038;-55
2023/01/16 12:24:33;;;;;;;0.40;0.40;;;;;;;9.82;78.22;96995.97;8360566;27;20373;-53
2023/01/16 12:29:00;;;;;;;0.35;0.30;;;;;;;9.44;79.87;96996.09;8352262;28;20086;-53
2023/01/16 12:33:21;;;;;;;1.92;0.40;;;;;;;8.86;81.34;96983.03;8350883;28;20041;-54
2023/01/16 12:38:01;;;;;;;1.33;0.30;;;;;;;8.55;83.08;96974.91;8350206;28;20038;-52
2023/01/16 12:46:29;;;;;;;1.85;0.70;;;;;;;8.44;84.62;96948.66;8318829;28;20814;-53
2023/01/16 12:51:00;;;;;;;0.30;0.20;;;;;;;8.40;84.73;96936.69;8315995;28;20042;-54
2023/01/16 12:59:21;;;;;;;0.57;0.30;;;;;;;8.46;85.70;96920.50;8352227;27;20580;-55
2023/01/16 13:04:01;;;;;;;0.47;0.30;;;;;;;8.47;85.57;96916.78;8342471;28;20037;-54
2023/01/16 13:08:23;;;;;;;0.85;0.40;;;;;;;8.43;86.07;96898.56;8313819;28;20056;-54
2023/01/16 13:13:29;;;;;;;0.40;0.20;;;;;;;8.40;86.30;96904.38;8326152;28;20033;-53
2023/01/16 13:17:02;;;;;;;1.27;0.70;;;;;;;8.28;84.82;96879.19;8347333;28;20106;-55
2023/01/16 13:21:07;;;;;;;0.57;0.30;;;;;;;8.13;86.00;96875.94;8347443;28;20053;-54
2023/01/16 13:25:32;;;;;;;0.90;0.25;;;;;;;7.96;87.23;96872.91;8345010;28;20041;-53
2023/01/16 13:29:39;;;;;;;1.80;0.30;;;;;;;7.76;88.61;96864.94;8347304;28;20083;-55
2023/01/16 13:33:43;;;;;;;1.52;0.80;;;;;;;7.64;90.41;96855.03;8347058;28;20091;-56
2023/01/16 13:37:57;;;;;;;1.38;0.52;;;;;;;7.64;90.99;96845.13;8343209;28;20383;-54
2023/01/16 13:41:59;;;;;;;0.40;0.40;;;;;;;7.63;90.27;96854.19;8370421;28;20049;-54
2023/01/16 13:46:01;;;;;;;0.95;0.45;;;;;;;7.66;91.18;96832.28;8343658;28;20045;-54
2023/01/16 13:50:24;;;;;;;1.67;0.60;;;;;;;7.67;92.10;96836.63;8346831;28;20452;-53
2023/01/16 13:54:35;;;;;;;0.70;0.50;;;;;;;7.60;93.40;96843.06;8317830;28;20491;-55
2023/01/16 13:58:39;;;;;;;2.50;0.65;;;;;;;7.40;95.83;96836.91;8312935;28;20428;-54
2023/01/16 14:02:42;;;;;;;1.42;0.90;;;;;;;7.29;97.17;96835.69;8343113;28;20041;-56
2023/01/16 14:06:48;;;;;;;2.58;1.67;;;;;;;7.25;98.77;96817.53;8342128;28;20048;-53
2023/01/16 14:11:26;;;;;;;1.05;0.57;;;;;;;7.22;98.68;96813.41;8324222;28;20037;-53
2023/01/16 14:16:30;;;;;;;1.45;0.52;;;;;;;7.26;97.56;96808.47;8317677;28;20046;-54
2023/01/16 14:24:59;;;;;;;1.25;0.75;;;;;;;7.35;95.51;96781.13;8347181;27;20419;-55
2023/01/16 14:29:01;;;;;;;0.55;0.40;;;;;;;7.43;95.31;96772.84;8331002;28;20129;-56
2023/01/16 14:33:05;;;;;;;0.50;0.40;;;;;;;7.50;94.08;96775.50;8315813;28;20041;-57
2023/01/16 14:37:14;;;;;;;0.88;0.50;;;;;;;7.52;93.68;96774.25;8330913;28;20041;-56
2023/01/16 14:55:13;;;;;;;0.40;0.40;;;;;;;7.66;92.93;96759.72;8320266;28;20049;-54
2023/01/16 14:59:20;;;;;;;0.30;0.30;;;;;;;7.61;93.42;96751.50;8309577;28;20046;-55
2023/01/16 15:03:28;;;;;;;0.30;0.30;;;;;;;7.61;94.14;96748.81;8296787;28;20503;-50
2023/01/16 15:07:40;;;;;;;2.42;0.43;;;;;;;7.55;94.14;96744.28;8282246;28;20042;-54
2023/01/16 15:11:51;;;;;;;0.40;0.30;;;;;;;7.54;94.33;96742.63;8311080;28;20038;-53
2023/01/16 15:15:58;;;;;;;2.13;0.45;;;;;;;7.45;95.52;96743.91;8323130;28;20406;-52
2023/01/16 15:24:36;;;;;;;1.60;1.00;;;;;;;7.46;95.94;96740.19;8343626;28;20083;-57
2023/01/16 15:33:43;;;;;;;1.63;0.90;;;;;;;7.34;96.24;96731.13;8350452;28;20382;-56
2023/01/16 15:37:21;;;;;;;1.30;1.00;;;;;;;7.38;96.14;96713.56;8343320;28;20114;-58
2023/01/16 15:46:34;;;;;;;1.60;1.20;;;;;;;7.31;97.04;96726.19;8314387;28;20080;-55
2023/01/16 15:50:54;;;;;;;1.77;1.40;;;;;;;7.32;97.09;96733.22;8312998;28;20037;-57
2023/01/16 15:54:56;;;;;;;3.63;1.25;;;;;;;7.30;97.78;96735.31;8346703;28;20114;-58
2023/01/16 15:58:56;;;;;;;3.90;0.60;;;;;;;7.35;97.98;96732.78;8346938;28;20486;-58
2023/01/16 16:03:00;;;;;;;0.45;0.45;;;;;;;7.31;97.96;96736.94;8347197;28;20041;-58
2023/01/16 16:07:00;;;;;;;0.70;0.60;;;;;;;7.37;97.18;96730.72;8347293;28;20092;-58
2023/01/16 16:12:05;;;;;;;0.80;0.40;;;;;;;7.44;96.80;96723.44;8346927;28;20503;-58
2023/01/16 16:19:46;;;;;;;2.88;0.40;;;;;;;7.28;98.73;96721.25;8334679;28;20046;-56
2023/01/16 16:23:54;;;;;;;0.80;0.50;;;;;;;7.22;99.64;96726.63;8335559;28;20037;-56
2023/01/16 16:27:55;;;;;;;0.90;0.70;;;;;;;7.12;100.00;96721.72;8313563;28;20041;-59
2023/01/16 16:32:01;;;;;;;1.83;0.47;;;;;;;7.06;100.00;96717.19;8313477;28;20066;-55
2023/01/16 16:36:02;;;;;;;1.30;0.80;;;;;;;7.04;100.00;96723.81;8332620;28;20049;-56
2023/01/16 16:40:12;;;;;;;1.35;0.40;;;;;;;7.02;100.00;96726.69;8346664;28;20053;-56
2023/01/16 16:44:23;;;;;;;0.88;0.50;;;;;;;7.01;100.00;96725.06;8310931;28;20092;-56
2023/01/16 16:48:29;;;;;;;7.97;1.92;;;;;;;7.04;100.00;96731.84;8314130;28;20517;-57
2023/01/16 16:52:40;;;;;;;6.10;1.63;;;;;;;6.95;100.00;96728.59;8308164;28;20531;-56
2023/01/16 16:56:47;;;;;;;4.78;1.90;;;;;;;6.94;100.00;96731.47;8301497;28;20042;-58
2023/01/16 17:00:47;;;;;;;0.90;0.52;;;;;;;6.98;100.00;96735.41;8305906;28;20550;-58
2023/01/16 17:04:48;;;;;;;0.88;0.60;;;;;;;6.93;100.00;96738.72;8315293;28;20435;-55
2023/01/16 17:08:49;;;;;;;0.70;0.57;;;;;;;6.89;100.00;96737.47;8312810;28;20135;-58
2023/01/16 17:12:49;;;;;;;0.50;0.40;;;;;;;6.88;100.00;96741.19;8312380;28;20061;-57
2023/01/16 17:16:50;;;;;;;1.67;0.43;;;;;;;6.92;99.54;96741.63;8317929;28;20091;-56
2023/01/16 17:20:52;;;;;;;1.42;0.60;;;;;;;6.96;98.40;96743.69;8320736;28;20123;-58
2023/01/16 17:24:54;;;;;;;0.93;0.60;;;;;;;6.96;98.69;96749.03;8321829;28;20040;-58
2023/01/16 17:28:55;;;;;;;0.90;0.50;;;;;;;6.95;97.94;96747.38;8317926;28;20038;-57
2023/01/16 17:33:00;;;;;;;1.63;0.70;;;;;;;6.98;97.59;96764.94;8321041;28;20049;-55
2023/01/16 17:37:00;;;;;;;1.20;0.60;;;;;;;6.98;98.07;96757.69;8322029;28;20038;-57
2023/01/16 17:41:01;;;;;;;0.65;0.40;;;;;;;6.99;98.30;96764.72;8322284;28;20047;-56
2023/01/16 17:46:06;;;;;;;0.98;0.60;;;;;;;7.01;97.65;96759.13;8321493;28;20281;-57
2023/01/16 17:49:26;;;;;;;1.60;0.90;;;;;;;7.05;97.70;96757.69;8319628;28;20426;-56
2023/01/16 17:53:28;;;;;;;1.88;1.20;;;;;;;7.09;97.53;96770.47;8311825;28;20068;-57
2023/01/16 17:57:28;;;;;;;1.88;1.23;;;;;;;7.06;98.17;96778.97;8320841;28;20072;-57
2023/01/16 18:01:30;;;;;;;1.45;0.50;;;;;;;7.07;97.33;96777.91;8319167;28;20129;-55
2023/01/16 18:05:30;;;;;;;1.50;0.70;;;;;;;7.05;96.33;96779.97;8332844;28;20510;-57
2023/01/16 18:09:31;;;;;;;1.15;0.63;;;;;;;7.05;97.55;96785.34;8346659;28;20501;-59
2023/01/16 18:17:52;;;;;;;2.47;1.05;;;;;;;6.91;97.82;96789.09;8323892;28;20033;-58
2023/01/16 18:21:59;;;;;;;0.57;0.50;;;;;;;6.88;98.75;96804.78;8318139;28;20502;-57
2023/01/16 18:26:00;;;;;;;2.70;0.90;;;;;;;6.76;100.00;96807.28;8320000;28;20041;-53
2023/01/16 18:30:00;;;;;;;1.30;0.70;;;;;;;6.68;100.00;96806.69;8319431;28;20087;-55
2023/01/16 18:34:01;;;;;;;0.70;0.60;;;;;;;6.65;100.00;96820.50;8317384;28;20156;-54
2023/01/16 19:04:12;;;;;;;3.55;2.50;;;;;;;6.20;100.00;96865.00;8322036;28;20049;-59
2023/01/16 19:08:21;;;;;;;4.18;3.70;;;;;;;6.26;100.00;96888.34;8322519;28;20092;-54
2023/01/16 19:12:25;;;;;;;5.75;4.45;;;;;;;6.26;100.00;96885.66;8322721;28;20127;-59
2023/01/16 19:16:56;;;;;;;4.65;3.72;;;;;;;6.14;100.00;96908.72;8322212;28;20053;-58
2023/01/16 19:20:45;;;;;;;3.33;2.55;;;;;;;5.97;100.00;96912.75;8321539;28;20038;-60
2023/01/16 19:24:46;;;;;;;2.95;2.22;;;;;;;5.89;100.00;96926.34;8322457;28;20049;-58
2023/01/16 19:28:46;;;;;;;4.30;2.17;;;;;;;5.83;100.00;96929.81;8322274;28;20414;-58
2023/01/16 19:32:47;;;;;;;3.45;3.10;;;;;;;5.86;100.00;96937.47;8317136;28;20422;-56
2023/01/16 19:36:47;;;;;;;5.32;3.63;;;;;;;5.88;100.00;96957.69;8317190;28;20029;-58
2023/01/16 19:40:48;;;;;;;3.53;3.20;;;;;;;5.84;100.00;96966.31;8320292;28;20527;-57
2023/01/16 19:49:11;;;;;;;3.90;3.50;;;;;;;5.76;100.00;96979.81;8322085;28;20426;-59
2023/01/16 19:53:11;;;;;;;3.90;3.50;;;;;;;5.68;100.00;96988.03;8319163;28;20041;-58
2023/01/16 19:57:12;;;;;;;3.67;3.17;;;;;;;5.68;100.00;96993.38;8321898;28;20068;-57
2023/01/16 20:01:12;;;;;;;3.20;2.90;;;;;;;5.66;100.00;97006.97;8321114;28;20072;-53
2023/01/16 20:05:13;;;;;;;3.53;3.22;;;;;;;5.68;100.00;97004.09;8305063;28;20116;-57
2023/01/16 20:09:14;;;;;;;3.10;2.83;;;;;;;5.69;100.00;97021.81;8321049;28;20046;-56
2023/01/16 20:13:14;;;;;;;4.30;3.90;;;;;;;5.69;100.00;97014.63;8320889;28;20140;-56
2023/01/16 20:17:15;;;;;;;4.35;3.95;;;;;;;5.71;100.00;97017.91;8324022;28;20045;-59
2023/01/16 20:21:17;;;;;;;5.15;4.25;;;;;;;5.77;100.00;97035.09;8327166;28;20069;-58
2023/01/16 20:25:18;;;;;;;4.32;3.78;;;;;;;5.82;100.00;97038.84;8324597;28;20499;-55
2023/01/16 20:29:22;;;;;;;3.75;3.35;;;;;;;5.83;100.00;97047.72;8327150;28;20045;-58
2023/01/16 20:33:23;;;;;;;4.95;3.00;;;;;;;5.85;100.00;97059.91;8324225;28;20076;-58
2023/01/16 20:37:24;;;;;;;2.58;2.38;;;;;;;5.90;100.00;97072.72;8307064;28;20117;-57
2023/01/16 20:45:54;;;;;;;4.15;2.30;;;;;;;5.98;100.00;97088.66;8315195;28;20036;-57
2023/01/16 20:49:54;;;;;;;2.83;2.08;;;;;;;6.01;100.00;97107.03;8323546;28;20061;-58
2023/01/16 20:53:55;;;;;;;2.85;1.38;;;;;;;6.07;100.00;97116.94;8322803;28;20064;-56
2023/01/16 20:57:55;;;;;;;2.88;0.93;;;;;;;6.14;100.00;97125.88;8321946;28;20042;-58
2023/01/16 21:01:58;;;;;;;3.80;1.60;;;;;;;6.16;100.00;97131.88;8321477;28;20510;-57
2023/01/16 21:05:59;;;;;;;4.20;1.90;;;;;;;6.15;100.00;97132.06;8321650;28;20052;-59
2023/01/16 21:09:59;;;;;;;2.33;2.10;;;;;;;6.21;100.00;97150.03;8323305;28;20518;-56
2023/01/16 21:14:17;;;;;;;5.13;2.20;;;;;;;6.14;100.00;97160.75;8317234;28;20087;-56
2023/01/16 21:22:44;;;;;;;6.55;2.53;;;;;;;5.90;100.00;97180.75;8321839;28;20038;-55
2023/01/16 21:26:45;;;;;;;3.15;2.30;;;;;;;5.74;100.00;97196.25;8322703;28;20060;-59
2023/01/16 21:30:46;;;;;;;2.33;2.13;;;;;;;5.70;100.00;97206.50;8321617;28;20083;-58
2023/01/16 21:34:48;;;;;;;2.10;1.70;;;;;;;5.62;100.00;97201.25;8319469;28;20045;-58
2023/01/16 21:38:48;;;;;;;2.08;1.33;;;;;;;5.56;100.00;97198.53;8319995;28;20450;-58
2023/01/16 21:47:09;;;;;;;2.13;1.50;;;;;;;5.41;100.00;97221.84;8319134;28;20121;-58
2023/01/16 21:51:10;;;;;;;1.75;1.42;;;;;;;5.36;100.00;97230.44;8319765;28;20530;-58
2023/01/16 21:55:10;;;;;;;2.00;1.60;;;;;;;5.37;100.00;97228.63;8320357;28;20262;-60
2023/01/16 21:59:11;;;;;;;3.10;1.83;;;;;;;5.36;100.00;97241.16;8319643;28;20114;-58